Terminal Aerodrome Forecast
Issued by NWS Jacksonville, FL

Home | Current Version | Previous Version | Text Only | Print | Product List | Glossary On
Versions: 1 2 3 4 5 6 7 8 9 10 11 12 13 14 15 16
000
FTUS42 KJAX 301120
TAFGNV
TAF
KGNV 301120Z 3012/3112 VRB02KT P6SM SKC
     FM301500 21009KT P6SM SKC
     FM301800 25011G18KT P6SM FEW050 SCT250
     FM310100 24006KT P6SM SCT050 BKN250
     FM310600 25003KT 6SM BR SCT250
     FM310900 28003KT 2SM BR SCT002 SCT250=

USA.gov is the U.S. government's official web portal to all federal, state and local government web resources and services.